Time;durP1;ratioP1;P1;durP2;ratioP2;P2;SDS_P1;SDS_P2;PMS_P1;PMS_P2;Temp;Humidity;BMP_temperature;BMP_pressure;BME280_temperature;BME280_humidity;BME280_pressure;Samples;Min_cycle;Max_cycle;Signal;HPM_P1;HPM_P2
2023/08/01 00:00:31;;;;;;;4.60;3.83;;;23.40;63.40;;;;;;5010124;28;20206;-46
2023/08/01 00:02:57;;;;;;;4.37;3.80;;;23.40;63.30;;;;;;5012497;28;20421;-45
2023/08/01 00:05:23;;;;;;;5.63;3.77;;;23.30;63.50;;;;;;5012257;28;20225;-47
2023/08/01 00:07:49;;;;;;;5.40;3.57;;;23.30;64.10;;;;;;5013265;28;20620;-44
2023/08/01 00:10:16;;;;;;;4.77;3.70;;;23.20;63.50;;;;;;4994477;28;20703;-45
2023/08/01 00:12:42;;;;;;;5.60;4.00;;;23.20;64.00;;;;;;5000548;28;20600;-47
2023/08/01 00:15:08;;;;;;;4.23;3.80;;;23.10;64.00;;;;;;5009473;28;20424;-45
2023/08/01 00:17:34;;;;;;;3.83;3.40;;;23.10;63.80;;;;;;5015286;28;20535;-46
2023/08/01 00:20:02;;;;;;;4.03;3.63;;;23.20;63.90;;;;;;5004384;28;20519;-48
2023/08/01 00:22:27;;;;;;;3.73;3.43;;;23.30;63.80;;;;;;5010898;28;20502;-45
2023/08/01 00:24:53;;;;;;;4.60;3.63;;;23.40;63.80;;;;;;5011659;28;20520;-45
2023/08/01 00:27:18;;;;;;;5.33;3.70;;;23.60;63.20;;;;;;5003056;28;20203;-51
2023/08/01 00:29:45;;;;;;;4.50;3.70;;;23.80;62.80;;;;;;5001079;28;20558;-49
2023/08/01 00:32:11;;;;;;;4.00;3.60;;;23.80;62.60;;;;;;5006764;28;20252;-48
2023/08/01 00:34:36;;;;;;;4.80;3.40;;;23.90;62.50;;;;;;5001885;28;20850;-50
2023/08/01 00:37:02;;;;;;;3.90;3.50;;;24.00;62.30;;;;;;4995184;28;20369;-50
2023/08/01 00:39:28;;;;;;;3.73;3.40;;;24.00;61.80;;;;;;5010273;28;20190;-51
2023/08/01 00:41:53;;;;;;;7.37;4.00;;;24.10;61.80;;;;;;4989817;28;20201;-50
2023/08/01 00:44:19;;;;;;;6.67;3.47;;;24.20;62.10;;;;;;5005843;28;20198;-47
2023/08/01 00:46:45;;;;;;;4.60;3.73;;;24.30;61.80;;;;;;5011341;28;20202;-49
2023/08/01 00:49:11;;;;;;;4.60;4.10;;;24.40;61.50;;;;;;5010998;28;20279;-49
2023/08/01 00:51:37;;;;;;;4.77;3.57;;;24.50;62.00;;;;;;5009849;28;20814;-47
2023/08/01 00:54:02;;;;;;;6.57;3.90;;;24.50;62.50;;;;;;5008385;28;20433;-46
2023/08/01 00:56:28;;;;;;;4.40;3.33;;;24.50;62.80;;;;;;5002139;28;20199;-48
2023/08/01 00:58:54;;;;;;;3.57;3.27;;;24.60;63.00;;;;;;5006499;28;20637;-49
2023/08/01 01:01:20;;;;;;;4.30;2.97;;;24.60;62.50;;;;;;5006125;28;20190;-50
2023/08/01 01:03:45;;;;;;;7.43;4.87;;;24.60;62.20;;;;;;5006063;28;20201;-46
2023/08/01 01:06:21;;;;;;;5.07;3.67;;;24.40;59.90;;;;;;5009788;28;20296;-46
2023/08/01 01:08:47;;;;;;;4.00;3.60;;;24.30;61.80;;;;;;5011383;28;20839;-45
2023/08/01 01:11:13;;;;;;;5.47;4.00;;;24.30;62.90;;;;;;4999011;28;20460;-50
2023/08/01 01:13:39;;;;;;;5.53;3.40;;;24.30;63.00;;;;;;5014666;28;20186;-48
2023/08/01 01:16:04;;;;;;;4.67;3.70;;;24.30;62.60;;;;;;5011595;28;20292;-50
2023/08/01 01:18:30;;;;;;;4.40;3.63;;;24.40;62.50;;;;;;5013635;28;20238;-50
2023/08/01 01:20:56;;;;;;;5.40;3.80;;;24.50;62.50;;;;;;5009852;28;20197;-48
2023/08/01 01:23:22;;;;;;;4.40;3.70;;;24.50;62.50;;;;;;5011113;28;20229;-49
2023/08/01 01:25:50;;;;;;;4.43;4.00;;;24.40;62.60;;;;;;5011141;28;20267;-49
2023/08/01 01:28:17;;;;;;;5.87;4.63;;;24.50;62.80;;;;;;5005963;28;20506;-50
2023/08/01 01:30:44;;;;;;;5.00;4.17;;;24.30;63.50;;;;;;5002138;28;20444;-50
2023/08/01 01:33:11;;;;;;;4.47;3.90;;;24.20;64.30;;;;;;5007109;28;20453;-48
2023/08/01 01:35:36;;;;;;;7.77;4.23;;;24.10;64.80;;;;;;5006749;28;20951;-49
2023/08/01 01:38:05;;;;;;;4.33;3.93;;;24.20;64.60;;;;;;5000432;28;20486;-47
2023/08/01 01:40:32;;;;;;;7.20;3.87;;;24.00;62.50;;;;;;4996221;28;20215;-45
2023/08/01 01:42:59;;;;;;;4.90;3.57;;;23.70;63.20;;;;;;5015175;28;20849;-48
2023/08/01 01:45:24;;;;;;;5.90;3.63;;;23.40;63.90;;;;;;5015695;28;20536;-49
2023/08/01 01:47:50;;;;;;;5.30;4.00;;;23.30;63.60;;;;;;5010711;28;20872;-45
2023/08/01 01:50:16;;;;;;;3.80;3.47;;;23.10;63.40;;;;;;5015103;28;20693;-50
2023/08/01 01:52:41;;;;;;;6.93;4.60;;;22.80;64.60;;;;;;5007552;28;20242;-47
2023/08/01 01:55:07;;;;;;;4.13;3.50;;;22.70;65.40;;;;;;5009629;28;20243;-45
2023/08/01 01:57:34;;;;;;;4.10;3.73;;;22.60;65.20;;;;;;5006661;28;20225;-50
2023/08/01 02:00:00;;;;;;;4.57;3.90;;;22.60;66.20;;;;;;5009949;28;20788;-49
2023/08/01 02:02:26;;;;;;;6.07;4.07;;;22.80;65.90;;;;;;5007909;28;20473;-50
2023/08/01 02:04:51;;;;;;;4.00;3.60;;;22.70;65.60;;;;;;5010311;28;20646;-47
2023/08/01 02:07:17;;;;;;;12.83;4.37;;;22.80;65.50;;;;;;5001892;28;20205;-46
2023/08/01 02:09:43;;;;;;;3.90;3.53;;;22.90;66.10;;;;;;4998024;28;20282;-47
2023/08/01 02:12:09;;;;;;;5.13;4.03;;;23.00;65.70;;;;;;4996098;28;20609;-45
2023/08/01 02:14:36;;;;;;;4.87;3.60;;;23.00;64.70;;;;;;5009407;28;20225;-45
2023/08/01 02:17:02;;;;;;;7.67;3.80;;;23.00;65.70;;;;;;5007333;28;20554;-46
2023/08/01 02:19:27;;;;;;;6.87;4.57;;;23.20;66.70;;;;;;5008071;28;20923;-44
2023/08/01 02:21:53;;;;;;;4.77;4.30;;;23.10;64.90;;;;;;5005261;28;20815;-45
2023/08/01 02:24:19;;;;;;;5.57;4.07;;;23.10;65.10;;;;;;5003457;28;20252;-45
2023/08/01 02:26:44;;;;;;;5.37;3.70;;;23.00;64.60;;;;;;5008714;28;20821;-45
2023/08/01 02:29:10;;;;;;;3.70;3.40;;;23.10;64.40;;;;;;4998165;28;20187;-47
2023/08/01 02:31:36;;;;;;;4.17;3.23;;;23.10;64.60;;;;;;5005399;28;20239;-45
2023/08/01 02:34:01;;;;;;;5.73;3.40;;;23.20;64.80;;;;;;5004313;28;20280;-45
2023/08/01 02:36:27;;;;;;;5.20;3.60;;;23.10;64.30;;;;;;5010808;28;20205;-45
2023/08/01 02:38:52;;;;;;;4.73;4.20;;;23.10;64.50;;;;;;4999440;28;20253;-46
2023/08/01 02:41:18;;;;;;;4.53;4.10;;;23.20;64.30;;;;;;5000370;28;20210;-45
2023/08/01 02:43:44;;;;;;;5.03;3.60;;;23.20;63.90;;;;;;5000931;28;20196;-45
2023/08/01 02:46:10;;;;;;;4.30;3.40;;;23.30;64.60;;;;;;5002180;28;20196;-45
2023/08/01 02:48:35;;;;;;;4.50;3.40;;;23.50;64.70;;;;;;5011493;28;20301;-45
2023/08/01 02:51:01;;;;;;;4.47;3.80;;;23.60;64.10;;;;;;5010314;28;20198;-48
2023/08/01 02:53:27;;;;;;;3.87;3.30;;;23.70;63.70;;;;;;5010452;28;20240;-47
2023/08/01 02:55:52;;;;;;;4.23;3.30;;;23.70;63.70;;;;;;5011315;28;21057;-45
2023/08/01 02:58:18;;;;;;;4.80;3.50;;;23.50;62.40;;;;;;5008602;28;20225;-46
2023/08/01 03:00:44;;;;;;;5.67;4.23;;;23.20;63.70;;;;;;5015002;28;20201;-45
2023/08/01 03:03:10;;;;;;;4.63;3.60;;;23.30;63.90;;;;;;5029619;28;20193;-45
2023/08/01 03:05:37;;;;;;;4.20;3.80;;;23.40;64.10;;;;;;5012238;28;20507;-48
2023/08/01 03:08:03;;;;;;;9.17;4.70;;;23.50;63.70;;;;;;5009562;28;20197;-45
2023/08/01 03:10:29;;;;;;;6.60;4.67;;;23.50;63.30;;;;;;5013751;28;20471;-48
2023/08/01 03:12:55;;;;;;;10.23;4.20;;;23.30;63.70;;;;;;5011903;28;20893;-45
2023/08/01 03:15:20;;;;;;;4.17;3.77;;;23.40;63.50;;;;;;5012033;28;20448;-45
2023/08/01 03:17:46;;;;;;;6.73;5.10;;;23.30;63.70;;;;;;5006412;28;20234;-46
2023/08/01 03:20:12;;;;;;;5.37;3.80;;;23.30;63.80;;;;;;5009859;28;20206;-46
2023/08/01 03:22:41;;;;;;;5.27;3.70;;;23.10;64.20;;;;;;5013689;28;20707;-47
2023/08/01 03:25:07;;;;;;;4.97;3.90;;;23.00;63.90;;;;;;5008607;28;20725;-45
2023/08/01 03:27:34;;;;;;;4.57;3.70;;;22.90;64.30;;;;;;5004712;28;21112;-49
2023/08/01 03:30:00;;;;;;;4.43;3.93;;;22.80;64.50;;;;;;5009997;28;20936;-47
2023/08/01 03:32:25;;;;;;;4.20;3.87;;;22.80;64.80;;;;;;5003096;28;20486;-45
2023/08/01 03:34:51;;;;;;;4.40;4.00;;;22.60;65.60;;;;;;5009019;28;21828;-50
2023/08/01 03:37:17;;;;;;;5.03;3.80;;;22.80;65.10;;;;;;5008799;28;20229;-45
2023/08/01 03:39:43;;;;;;;4.43;3.57;;;22.70;64.80;;;;;;5013011;28;20229;-49
2023/08/01 03:42:09;;;;;;;6.13;3.60;;;22.40;65.10;;;;;;5015172;28;20847;-45
2023/08/01 03:44:34;;;;;;;5.10;4.00;;;22.30;66.30;;;;;;5021230;28;20203;-47
2023/08/01 03:47:00;;;;;;;5.10;3.70;;;22.40;66.10;;;;;;5006492;28;20194;-46
2023/08/01 03:49:25;;;;;;;4.27;3.30;;;22.40;66.10;;;;;;5000686;28;20206;-45
2023/08/01 03:51:51;;;;;;;6.13;4.00;;;22.50;65.30;;;;;;5005090;28;20202;-45
2023/08/01 03:54:16;;;;;;;5.30;3.73;;;22.60;65.00;;;;;;5014620;28;20202;-47
2023/08/01 03:56:43;;;;;;;4.80;3.50;;;22.40;65.00;;;;;;5006991;28;20276;-49
2023/08/01 03:59:10;;;;;;;4.67;3.80;;;22.50;65.10;;;;;;5010342;28;20667;-46
2023/08/01 04:01:36;;;;;;;3.77;3.20;;;22.40;65.30;;;;;;5009722;28;20440;-45
2023/08/01 04:04:02;;;;;;;3.23;2.90;;;22.40;65.40;;;;;;5010845;28;20441;-45
2023/08/01 04:06:28;;;;;;;4.43;4.00;;;22.30;65.30;;;;;;5012810;28;20524;-47
2023/08/01 04:08:56;;;;;;;5.50;3.63;;;22.20;66.20;;;;;;5008579;28;20642;-45
2023/08/01 04:11:22;;;;;;;3.20;2.87;;;22.10;66.00;;;;;;5007381;28;20202;-47
2023/08/01 04:13:47;;;;;;;4.90;3.67;;;22.00;65.90;;;;;;5012231;28;20436;-45
2023/08/01 04:16:13;;;;;;;7.27;4.37;;;22.10;66.50;;;;;;5014338;28;20193;-50
2023/08/01 04:18:38;;;;;;;4.70;3.60;;;22.30;66.00;;;;;;5004782;28;20233;-45
2023/08/01 04:21:04;;;;;;;4.20;3.80;;;22.30;66.00;;;;;;5010419;28;20243;-46
2023/08/01 04:23:30;;;;;;;4.83;3.93;;;22.40;65.90;;;;;;5007980;28;20692;-45
2023/08/01 04:25:55;;;;;;;4.70;3.37;;;22.30;65.80;;;;;;5015768;28;20213;-44
2023/08/01 04:28:21;;;;;;;4.07;3.67;;;22.50;65.80;;;;;;5011067;28;20273;-50
2023/08/01 04:30:50;;;;;;;5.47;3.60;;;22.50;65.20;;;;;;5008451;28;20206;-44
2023/08/01 04:33:16;;;;;;;5.50;3.07;;;22.40;66.10;;;;;;5010693;28;20248;-45
2023/08/01 04:35:41;;;;;;;4.90;4.10;;;22.30;66.50;;;;;;5005713;28;20835;-46
2023/08/01 04:38:08;;;;;;;3.70;3.40;;;22.20;66.70;;;;;;5006985;28;20566;-45
2023/08/01 04:40:34;;;;;;;3.60;2.83;;;22.10;65.50;;;;;;5004164;28;20285;-45
2023/08/01 04:43:01;;;;;;;3.90;3.40;;;22.20;66.70;;;;;;4998624;28;20525;-45
2023/08/01 04:45:27;;;;;;;5.23;3.60;;;22.30;66.60;;;;;;5013829;28;20629;-46
2023/08/01 04:47:53;;;;;;;4.47;3.50;;;22.50;65.50;;;;;;5001937;28;20476;-50
2023/08/01 04:50:18;;;;;;;4.50;3.33;;;22.60;65.10;;;;;;5003510;28;20202;-46
2023/08/01 04:52:44;;;;;;;3.80;3.40;;;22.70;64.30;;;;;;5004415;28;20479;-47
2023/08/01 04:55:09;;;;;;;4.30;3.33;;;22.80;63.80;;;;;;5004234;28;20280;-46
2023/08/01 04:57:35;;;;;;;7.53;3.17;;;22.90;63.80;;;;;;5002376;28;20617;-50
2023/08/01 05:00:01;;;;;;;5.20;3.90;;;23.10;63.40;;;;;;4997812;28;20206;-46
2023/08/01 05:02:27;;;;;;;3.20;2.53;;;23.10;62.40;;;;;;5003514;28;20194;-45
2023/08/01 05:04:52;;;;;;;4.43;4.03;;;23.10;62.70;;;;;;5009253;28;20527;-45
2023/08/01 05:07:18;;;;;;;5.23;3.80;;;23.10;62.00;;;;;;5005666;28;20689;-46
2023/08/01 05:09:44;;;;;;;4.83;3.47;;;23.00;61.70;;;;;;5006557;28;20186;-45
2023/08/01 05:12:09;;;;;;;4.23;3.63;;;22.90;62.00;;;;;;5006039;28;20277;-45
2023/08/01 05:14:35;;;;;;;4.37;2.83;;;22.90;62.70;;;;;;5011308;28;20194;-45
2023/08/01 05:17:00;;;;;;;3.10;2.80;;;23.00;62.60;;;;;;4999041;28;20222;-47
2023/08/01 05:19:26;;;;;;;4.00;3.13;;;23.10;62.90;;;;;;5010612;28;20268;-45
2023/08/01 05:21:52;;;;;;;4.07;3.43;;;23.20;63.00;;;;;;5000249;28;20286;-45
2023/08/01 05:24:17;;;;;;;13.43;3.40;;;23.20;63.60;;;;;;5005391;28;20202;-45
2023/08/01 05:26:43;;;;;;;3.10;2.80;;;23.20;63.60;;;;;;5001089;28;20205;-46
2023/08/01 05:29:08;;;;;;;4.87;3.07;;;23.40;63.10;;;;;;5003605;28;20260;-46
2023/08/01 05:31:34;;;;;;;4.60;3.70;;;23.50;62.70;;;;;;5007886;28;20182;-45
2023/08/01 05:34:00;;;;;;;4.33;3.67;;;23.60;62.50;;;;;;5009002;28;20712;-46
2023/08/01 05:36:25;;;;;;;6.50;3.40;;;23.70;61.90;;;;;;5012455;28;20258;-51
2023/08/01 05:38:51;;;;;;;3.70;3.10;;;23.80;62.00;;;;;;5007143;28;20207;-45
2023/08/01 05:41:16;;;;;;;4.47;2.70;;;23.90;61.80;;;;;;5006538;28;20200;-44
2023/08/01 05:43:42;;;;;;;5.70;3.40;;;23.90;61.20;;;;;;5005964;28;20194;-44
2023/08/01 05:46:07;;;;;;;6.07;3.30;;;24.00;61.10;;;;;;5006390;28;20223;-44
2023/08/01 05:48:33;;;;;;;3.63;3.27;;;23.90;60.90;;;;;;5008183;28;20194;-46
2023/08/01 05:50:58;;;;;;;23.97;3.80;;;24.00;60.80;;;;;;5001962;28;20261;-45
2023/08/01 05:53:24;;;;;;;6.50;3.27;;;24.10;61.00;;;;;;5008095;28;20244;-45
2023/08/01 05:55:50;;;;;;;5.07;3.27;;;24.10;60.70;;;;;;5006898;28;20567;-44
2023/08/01 05:58:16;;;;;;;4.97;3.40;;;24.10;60.40;;;;;;5007771;28;20229;-47
2023/08/01 06:00:41;;;;;;;4.63;3.50;;;24.20;60.40;;;;;;4997184;28;20190;-44
2023/08/01 06:03:07;;;;;;;3.47;3.10;;;24.20;60.30;;;;;;5007318;28;20441;-44
2023/08/01 06:05:33;;;;;;;4.83;3.37;;;24.30;60.30;;;;;;5003949;28;20206;-45
2023/08/01 06:07:58;;;;;;;3.03;2.60;;;24.30;59.70;;;;;;5007561;28;20204;-46
2023/08/01 06:10:24;;;;;;;4.03;2.80;;;24.20;59.70;;;;;;5006731;28;20210;-45
2023/08/01 06:12:49;;;;;;;4.13;3.20;;;24.30;59.60;;;;;;4995755;28;20181;-44
2023/08/01 06:15:15;;;;;;;3.80;3.23;;;24.30;59.50;;;;;;4993440;28;20194;-44
2023/08/01 06:17:41;;;;;;;7.53;3.27;;;24.40;59.50;;;;;;5004521;28;20276;-45
2023/08/01 06:20:07;;;;;;;3.67;3.17;;;24.40;59.50;;;;;;5001510;28;20189;-45
2023/08/01 06:22:33;;;;;;;5.33;4.13;;;24.40;59.10;;;;;;5002967;28;20360;-44
2023/08/01 06:24:58;;;;;;;6.30;3.60;;;24.00;57.00;;;;;;5002097;28;21312;-43
2023/08/01 06:27:25;;;;;;;7.20;4.00;;;23.50;58.60;;;;;;4990816;28;20191;-44
2023/08/01 06:29:50;;;;;;;4.60;3.57;;;23.70;59.00;;;;;;5004692;28;20202;-45
2023/08/01 06:32:16;;;;;;;4.13;3.70;;;23.30;58.80;;;;;;5001855;28;20536;-44
2023/08/01 06:34:41;;;;;;;5.70;3.77;;;23.20;59.40;;;;;;5008810;28;20198;-44
2023/08/01 06:37:07;;;;;;;6.73;4.47;;;22.90;59.10;;;;;;5004325;28;20902;-44
2023/08/01 06:39:32;;;;;;;5.70;3.80;;;22.40;59.20;;;;;;5008460;28;20255;-45
2023/08/01 06:41:58;;;;;;;5.93;3.90;;;22.20;61.40;;;;;;4999349;28;20342;-44
2023/08/01 06:44:24;;;;;;;6.73;4.10;;;22.00;62.40;;;;;;5010792;28;20190;-43
2023/08/01 06:46:49;;;;;;;4.60;3.70;;;21.90;66.50;;;;;;4998660;28;20864;-45
2023/08/01 06:49:15;;;;;;;6.17;4.90;;;22.10;68.30;;;;;;5001694;28;20543;-46
2023/08/01 06:51:42;;;;;;;5.27;4.00;;;22.30;67.50;;;;;;5007607;28;20198;-44
2023/08/01 06:54:08;;;;;;;5.97;4.30;;;22.40;66.90;;;;;;5007759;28;20658;-45
2023/08/01 06:56:33;;;;;;;7.60;5.17;;;22.40;67.70;;;;;;5009123;28;20480;-44
2023/08/01 06:58:59;;;;;;;6.40;5.20;;;22.50;67.70;;;;;;5004315;28;20194;-44
2023/08/01 07:01:24;;;;;;;8.00;6.70;;;22.20;67.30;;;;;;5000367;28;20249;-43
2023/08/01 07:03:53;;;;;;;10.40;7.27;;;22.20;69.10;;;;;;4999142;28;20194;-47
2023/08/01 07:06:19;;;;;;;13.00;5.33;;;22.30;69.10;;;;;;5007517;28;20206;-45
2023/08/01 07:08:44;;;;;;;6.37;5.67;;;22.20;69.00;;;;;;5005504;28;20920;-44
2023/08/01 07:11:10;;;;;;;7.27;5.83;;;22.30;68.70;;;;;;5001608;28;20544;-43
2023/08/01 07:13:35;;;;;;;8.03;6.40;;;22.00;68.10;;;;;;5001636;28;20651;-45
2023/08/01 07:16:02;;;;;;;10.53;5.77;;;21.90;68.70;;;;;;5004892;28;20202;-46
2023/08/01 07:18:27;;;;;;;7.27;5.70;;;22.00;70.10;;;;;;5003973;28;20229;-49
2023/08/01 07:21:00;;;;;;;6.53;5.93;;;22.10;69.80;;;;;;5000750;28;20559;-48
2023/08/01 07:23:26;;;;;;;7.03;5.00;;;22.10;68.60;;;;;;4995345;28;20197;-49
2023/08/01 07:25:51;;;;;;;7.03;6.33;;;22.00;69.00;;;;;;5005478;28;20433;-49
2023/08/01 07:28:17;;;;;;;8.47;5.60;;;21.90;68.70;;;;;;5005031;28;20199;-48
2023/08/01 07:30:42;;;;;;;7.83;5.97;;;22.00;68.70;;;;;;4999863;28;20309;-49
2023/08/01 07:33:08;;;;;;;7.20;5.70;;;22.10;69.20;;;;;;5000231;28;20755;-46
2023/08/01 07:35:33;;;;;;;8.30;6.30;;;22.20;69.10;;;;;;5008687;28;20236;-49
2023/08/01 07:37:59;;;;;;;8.33;5.63;;;22.10;68.80;;;;;;5009360;28;20234;-46
2023/08/01 07:40:25;;;;;;;8.10;6.13;;;22.10;69.50;;;;;;5009717;28;20186;-49
2023/08/01 07:42:50;;;;;;;6.13;5.33;;;21.50;72.10;;;;;;5008223;28;20310;-47
2023/08/01 07:45:17;;;;;;;10.10;5.60;;;21.10;73.90;;;;;;5008389;28;20664;-48
2023/08/01 07:47:42;;;;;;;8.00;5.83;;;20.90;76.20;;;;;;5003652;28;20213;-47
2023/08/01 07:50:08;;;;;;;7.33;5.53;;;20.50;77.90;;;;;;5004275;28;20452;-49
2023/08/01 07:52:34;;;;;;;6.67;5.13;;;20.50;79.10;;;;;;5011637;28;20249;-49
2023/08/01 07:54:59;;;;;;;7.27;5.30;;;20.30;77.90;;;;;;5010715;28;20265;-47
2023/08/01 07:57:25;;;;;;;6.20;5.00;;;20.40;79.20;;;;;;5002292;28;20222;-44
2023/08/01 07:59:50;;;;;;;6.80;4.80;;;20.40;78.80;;;;;;5012488;28;20371;-49
2023/08/01 08:02:16;;;;;;;5.60;4.33;;;20.40;79.60;;;;;;5008463;28;20190;-47
2023/08/01 08:04:42;;;;;;;5.80;3.90;;;20.20;81.40;;;;;;5007459;28;20217;-44
2023/08/01 08:07:07;;;;;;;5.20;4.53;;;20.00;84.50;;;;;;5003691;28;20194;-45
2023/08/01 08:09:33;;;;;;;6.87;4.60;;;20.00;85.20;;;;;;5007463;28;20194;-43
2023/08/01 08:11:58;;;;;;;5.10;4.60;;;20.10;85.70;;;;;;5003571;28;20200;-45
2023/08/01 08:14:24;;;;;;;5.63;4.17;;;20.10;86.60;;;;;;5010004;28;20251;-43
2023/08/01 08:16:50;;;;;;;5.50;3.70;;;19.80;87.80;;;;;;5006646;28;20218;-49
2023/08/01 08:19:16;;;;;;;3.87;3.47;;;19.90;87.80;;;;;;5011409;28;20234;-44
2023/08/01 08:21:42;;;;;;;4.30;3.90;;;20.00;87.70;;;;;;5011146;28;20473;-43
2023/08/01 08:24:07;;;;;;;3.83;3.43;;;20.10;86.20;;;;;;5001461;28;20202;-45
2023/08/01 08:26:37;;;;;;;3.80;2.90;;;20.10;87.60;;;;;;5008905;28;20720;-45
2023/08/01 08:29:04;;;;;;;4.50;3.40;;;20.20;87.60;;;;;;4995289;28;20253;-45
2023/08/01 08:31:30;;;;;;;4.23;3.37;;;20.30;87.40;;;;;;5006226;28;20856;-44
2023/08/01 08:33:56;;;;;;;4.00;3.43;;;20.20;87.60;;;;;;5011247;28;20540;-45
2023/08/01 08:36:21;;;;;;;4.03;3.50;;;20.20;87.70;;;;;;4995850;28;20321;-44
2023/08/01 08:38:47;;;;;;;4.67;3.70;;;20.30;88.30;;;;;;5008954;28;20308;-46
2023/08/01 08:41:20;;;;;;;3.47;3.10;;;20.30;87.70;;;;;;5005914;28;20201;-44
2023/08/01 08:43:48;;;;;;;3.93;3.40;;;20.30;88.30;;;;;;5008330;28;20222;-49
2023/08/01 08:46:16;;;;;;;3.70;3.40;;;20.20;87.80;;;;;;5008809;28;20444;-46
2023/08/01 08:48:44;;;;;;;4.40;3.80;;;20.30;88.30;;;;;;5009769;28;20451;-44
2023/08/01 08:51:11;;;;;;;4.83;3.50;;;20.30;88.00;;;;;;5004293;28;20445;-45
2023/08/01 08:53:39;;;;;;;4.07;3.00;;;20.50;88.10;;;;;;5009146;28;20518;-44
2023/08/01 08:56:07;;;;;;;4.23;3.30;;;20.40;86.40;;;;;;5002304;28;20477;-44
2023/08/01 08:58:33;;;;;;;4.50;3.70;;;20.60;86.90;;;;;;5002177;28;21314;-46
2023/08/01 09:01:01;;;;;;;3.60;3.10;;;20.60;88.30;;;;;;5004776;28;20453;-44
2023/08/01 09:03:28;;;;;;;7.00;3.10;;;20.70;87.90;;;;;;5009536;28;20197;-45
2023/08/01 09:06:07;;;;;;;11.77;3.70;;;20.80;87.70;;;;;;5004311;28;20525;-47
2023/08/01 09:08:35;;;;;;;3.53;3.23;;;20.80;86.50;;;;;;5003729;28;20456;-49
2023/08/01 09:11:01;;;;;;;3.97;3.27;;;20.70;86.70;;;;;;4996143;28;20515;-44
2023/08/01 09:13:27;;;;;;;4.73;3.47;;;20.70;86.90;;;;;;5007820;28;20536;-46
2023/08/01 09:15:53;;;;;;;4.90;3.77;;;20.80;85.90;;;;;;5003587;28;20190;-48
2023/08/01 09:18:18;;;;;;;3.73;3.23;;;20.90;85.30;;;;;;5003589;28;20728;-46
2023/08/01 09:20:48;;;;;;;3.30;3.00;;;21.10;85.70;;;;;;5004595;28;20198;-45
2023/08/01 09:23:15;;;;;;;5.53;3.27;;;21.10;84.20;;;;;;5003354;28;20351;-47
2023/08/01 09:25:41;;;;;;;4.00;2.97;;;21.20;84.70;;;;;;4999580;28;20445;-44
2023/08/01 09:28:20;;;;;;;3.93;2.90;;;21.10;83.70;;;;;;5004452;28;20456;-46
2023/08/01 09:30:56;;;;;;;3.23;2.80;;;21.20;85.10;;;;;;5005998;28;20453;-46
2023/08/01 09:33:23;;;;;;;3.13;2.83;;;21.20;84.40;;;;;;5010460;28;20523;-45
2023/08/01 09:35:52;;;;;;;4.20;3.10;;;21.20;84.90;;;;;;4998912;28;20563;-48
2023/08/01 09:38:18;;;;;;;3.37;2.57;;;21.40;84.50;;;;;;5001481;28;20511;-48
2023/08/01 09:40:45;;;;;;;2.67;2.47;;;21.50;85.10;;;;;;5002348;28;20437;-47
2023/08/01 09:43:12;;;;;;;4.50;2.30;;;21.60;83.80;;;;;;5003347;28;20955;-45
2023/08/01 09:45:37;;;;;;;2.30;2.13;;;21.40;83.70;;;;;;5001705;28;20444;-44
2023/08/01 09:48:03;;;;;;;2.40;2.20;;;21.60;82.30;;;;;;5007534;28;20515;-47
2023/08/01 09:50:29;;;;;;;1.90;1.80;;;21.30;83.60;;;;;;5005851;28;20267;-47
2023/08/01 09:52:55;;;;;;;2.17;1.80;;;21.50;84.90;;;;;;5004716;28;20256;-46
2023/08/01 09:55:26;;;;;;;2.77;1.70;;;21.60;83.50;;;;;;5004349;28;20321;-48
2023/08/01 09:57:56;;;;;;;2.23;2.03;;;21.50;83.60;;;;;;5005711;28;20688;-45
2023/08/01 10:00:22;;;;;;;2.80;1.80;;;21.40;84.50;;;;;;5007089;28;20456;-45
2023/08/01 10:02:53;;;;;;;3.23;1.73;;;21.60;84.10;;;;;;4993309;28;20443;-46
2023/08/01 10:05:19;;;;;;;1.70;1.60;;;21.80;83.20;;;;;;5002300;28;20522;-47
2023/08/01 10:07:47;;;;;;;1.60;1.50;;;22.00;83.50;;;;;;5000273;28;20441;-47
2023/08/01 10:10:15;;;;;;;3.53;1.97;;;22.10;81.40;;;;;;5005414;28;20448;-45
2023/08/01 10:12:45;;;;;;;1.80;1.50;;;22.00;82.80;;;;;;5006260;28;21307;-45
2023/08/01 10:15:11;;;;;;;1.77;1.67;;;22.10;83.10;;;;;;5005238;28;20524;-45
2023/08/01 10:17:36;;;;;;;2.10;1.73;;;22.20;81.20;;;;;;4999107;28;20581;-46
2023/08/01 10:20:03;;;;;;;2.13;1.93;;;22.30;81.40;;;;;;5001307;28;20529;-46
2023/08/01 10:22:29;;;;;;;1.40;1.30;;;22.40;79.80;;;;;;5005971;28;20189;-48
2023/08/01 10:24:56;;;;;;;6.50;1.37;;;22.40;79.20;;;;;;5000641;28;20475;-46
2023/08/01 10:27:22;;;;;;;2.23;1.20;;;22.50;79.70;;;;;;5006480;28;20457;-46
2023/08/01 10:30:01;;;;;;;1.33;1.23;;;22.30;79.60;;;;;;5003455;28;20507;-48
2023/08/01 10:32:36;;;;;;;0.90;0.90;;;22.50;79.50;;;;;;5004379;28;20189;-48
2023/08/01 10:35:03;;;;;;;1.43;1.33;;;22.40;79.30;;;;;;4997680;28;20511;-45
2023/08/01 10:37:47;;;;;;;1.30;1.20;;;22.30;78.80;;;;;;4991248;28;20488;-47
2023/08/01 10:40:12;;;;;;;1.30;1.10;;;22.40;79.10;;;;;;5001354;28;20801;-47
2023/08/01 10:42:46;;;;;;;4.10;1.43;;;22.40;78.60;;;;;;5006661;28;20448;-46
2023/08/01 10:45:22;;;;;;;1.10;1.00;;;22.50;79.50;;;;;;5004590;28;20198;-46
2023/08/01 10:47:49;;;;;;;1.77;1.20;;;22.60;80.10;;;;;;4993971;28;20457;-46
2023/08/01 10:50:16;;;;;;;1.67;1.20;;;22.80;80.00;;;;;;5006486;28;20460;-46
2023/08/01 10:52:43;;;;;;;2.10;1.30;;;23.10;78.80;;;;;;5006468;28;20539;-48
2023/08/01 10:55:09;;;;;;;1.57;1.47;;;23.20;78.30;;;;;;5000591;28;20468;-49
2023/08/01 10:57:37;;;;;;;3.13;1.77;;;23.40;77.80;;;;;;5004308;28;20473;-45
2023/08/01 11:00:09;;;;;;;0.90;0.83;;;23.50;76.40;;;;;;4995288;28;20487;-46
2023/08/01 11:02:35;;;;;;;1.00;0.90;;;23.20;73.90;;;;;;5008503;28;20480;-46
2023/08/01 11:05:04;;;;;;;0.90;0.90;;;22.90;76.60;;;;;;5002470;28;20925;-47
2023/08/01 11:07:30;;;;;;;2.17;1.00;;;22.90;74.40;;;;;;5003132;28;20450;-48
2023/08/01 11:10:09;;;;;;;0.90;0.70;;;22.90;74.00;;;;;;5001353;28;20429;-46
2023/08/01 11:12:39;;;;;;;0.80;0.80;;;22.70;74.00;;;;;;5008893;28;20276;-44
2023/08/01 11:15:08;;;;;;;1.30;1.10;;;22.60;70.00;;;;;;5007781;28;20451;-47
2023/08/01 11:17:34;;;;;;;1.10;1.00;;;22.80;71.40;;;;;;5008169;28;20496;-47
2023/08/01 11:20:08;;;;;;;0.80;0.80;;;23.10;69.40;;;;;;5001137;28;20448;-46
2023/08/01 11:22:34;;;;;;;1.97;1.10;;;23.30;64.90;;;;;;5002407;28;21161;-45
2023/08/01 11:25:00;;;;;;;1.23;1.13;;;23.50;63.80;;;;;;5005139;28;20444;-49
2023/08/01 11:27:26;;;;;;;1.43;0.80;;;23.80;63.90;;;;;;5000188;28;20511;-50
2023/08/01 11:29:53;;;;;;;5.43;0.90;;;24.10;64.10;;;;;;4997871;28;20280;-47
2023/08/01 11:32:23;;;;;;;2.57;1.03;;;24.20;59.70;;;;;;5007465;28;21262;-45
2023/08/01 11:34:49;;;;;;;1.47;0.80;;;24.50;59.80;;;;;;5001329;28;20450;-45
2023/08/01 11:37:19;;;;;;;1.43;1.00;;;24.50;58.40;;;;;;5000909;28;20503;-45
2023/08/01 11:39:46;;;;;;;1.53;1.30;;;24.20;56.80;;;;;;4999316;28;20441;-45
2023/08/01 11:42:18;;;;;;;1.40;1.30;;;23.90;56.70;;;;;;5009719;28;20788;-45
2023/08/01 11:44:44;;;;;;;2.43;1.40;;;23.90;57.10;;;;;;5004686;28;20987;-46
2023/08/01 11:47:12;;;;;;;1.73;1.00;;;24.20;57.40;;;;;;5010038;28;20451;-46
2023/08/01 11:49:38;;;;;;;2.03;1.33;;;24.40;57.30;;;;;;5000881;28;20550;-45
2023/08/01 11:52:04;;;;;;;1.87;1.30;;;24.50;55.90;;;;;;5007977;28;20877;-45
2023/08/01 11:54:29;;;;;;;2.47;1.30;;;24.40;56.20;;;;;;5010967;28;20198;-47
2023/08/01 11:57:01;;;;;;;1.00;1.00;;;24.30;55.70;;;;;;5006343;28;20814;-46
2023/08/01 11:59:27;;;;;;;1.27;1.03;;;24.00;55.40;;;;;;5004320;28;20532;-48
2023/08/01 12:01:52;;;;;;;1.63;1.40;;;24.00;56.70;;;;;;5010637;28;20487;-47
2023/08/01 12:04:25;;;;;;;1.10;1.00;;;24.10;56.90;;;;;;5009179;28;20213;-48
2023/08/01 12:06:51;;;;;;;2.33;1.40;;;24.10;54.70;;;;;;5003961;28;20233;-48
2023/08/01 12:09:20;;;;;;;1.33;1.23;;;24.20;54.90;;;;;;5002244;28;20442;-47
2023/08/01 12:11:45;;;;;;;2.60;1.80;;;24.40;55.10;;;;;;4997701;28;20244;-46
2023/08/01 12:14:13;;;;;;;1.73;1.40;;;24.70;55.30;;;;;;5007014;28;20471;-46
2023/08/01 12:16:45;;;;;;;3.47;1.50;;;24.80;53.10;;;;;;5005816;28;20204;-46
2023/08/01 12:19:16;;;;;;;2.47;2.07;;;24.80;52.70;;;;;;4995198;28;21325;-47
2023/08/01 12:21:41;;;;;;;1.40;1.30;;;24.90;52.70;;;;;;5003659;28;20533;-47
2023/08/01 12:24:07;;;;;;;1.80;1.70;;;25.20;53.30;;;;;;5002074;28;20536;-45
2023/08/01 12:26:32;;;;;;;2.40;1.40;;;25.50;52.00;;;;;;4998387;28;20208;-46
2023/08/01 12:28:58;;;;;;;1.80;1.10;;;25.40;51.20;;;;;;5006992;28;20194;-46
2023/08/01 12:31:24;;;;;;;1.10;0.80;;;25.70;51.00;;;;;;4993059;28;20241;-45
2023/08/01 12:33:49;;;;;;;2.17;1.20;;;25.80;50.00;;;;;;5009100;28;20189;-48
2023/08/01 12:36:15;;;;;;;1.60;1.43;;;25.70;49.70;;;;;;4999158;28;20670;-45
2023/08/01 12:38:41;;;;;;;1.50;1.13;;;25.60;48.20;;;;;;5005554;28;20234;-45
2023/08/01 12:41:07;;;;;;;3.63;1.57;;;25.60;48.90;;;;;;5000877;28;20487;-45